sensor_id;sensor_type;location;lat;lon;timestamp;pressure;altitude;pressure_sealevel;temperature;humidity
45813;BME280;31519;45.408;10.962;2023-10-13T00:02:04;101212.00;;;22.75;72.94
45813;BME280;31519;45.408;10.962;2023-10-13T00:04:34;101221.72;;;22.76;73.55
45813;BME280;31519;45.408;10.962;2023-10-13T00:07:04;101230.19;;;22.44;75.04
45813;BME280;31519;45.408;10.962;2023-10-13T00:09:37;101230.16;;;22.41;75.63
45813;BME280;31519;45.408;10.962;2023-10-13T00:12:07;101230.25;;;22.48;75.32
45813;BME280;31519;45.408;10.962;2023-10-13T00:14:42;101231.97;;;22.33;75.66
45813;BME280;31519;45.408;10.962;2023-10-13T00:17:13;101236.59;;;22.33;76.02
45813;BME280;31519;45.408;10.962;2023-10-13T00:19:49;101231.03;;;22.48;76.01
45813;BME280;31519;45.408;10.962;2023-10-13T00:22:20;101223.91;;;22.67;75.11
45813;BME280;31519;45.408;10.962;2023-10-13T00:24:51;101232.84;;;22.67;74.72
45813;BME280;31519;45.408;10.962;2023-10-13T00:27:26;101240.00;;;23.09;73.43
45813;BME280;31519;45.408;10.962;2023-10-13T00:30:06;101233.94;;;23.22;72.31
45813;BME280;31519;45.408;10.962;2023-10-13T00:32:52;101237.47;;;23.26;71.74
45813;BME280;31519;45.408;10.962;2023-10-13T00:35:29;101235.88;;;22.62;74.30
45813;BME280;31519;45.408;10.962;2023-10-13T00:38:04;101232.59;;;22.49;75.54
45813;BME280;31519;45.408;10.962;2023-10-13T00:40:41;101234.72;;;21.88;78.32
45813;BME280;31519;45.408;10.962;2023-10-13T00:43:11;101230.09;;;21.46;80.25
45813;BME280;31519;45.408;10.962;2023-10-13T00:45:57;101229.41;;;21.72;79.57
45813;BME280;31519;45.408;10.962;2023-10-13T00:48:31;101224.00;;;21.30;81.37
45813;BME280;31519;45.408;10.962;2023-10-13T00:51:04;101223.38;;;21.59;81.34
45813;BME280;31519;45.408;10.962;2023-10-13T00:53:37;101218.69;;;21.79;80.06
45813;BME280;31519;45.408;10.962;2023-10-13T00:56:08;101223.91;;;21.68;80.70
45813;BME280;31519;45.408;10.962;2023-10-13T00:58:57;101215.31;;;21.63;80.17
45813;BME280;31519;45.408;10.962;2023-10-13T01:01:30;101220.91;;;21.74;80.16
45813;BME280;31519;45.408;10.962;2023-10-13T01:04:02;101222.13;;;21.76;80.29
45813;BME280;31519;45.408;10.962;2023-10-13T01:06:33;101224.44;;;21.97;79.37
45813;BME280;31519;45.408;10.962;2023-10-13T01:09:02;101224.03;;;22.21;78.13
45813;BME280;31519;45.408;10.962;2023-10-13T01:11:48;101221.16;;;21.88;79.13
45813;BME280;31519;45.408;10.962;2023-10-13T01:14:21;101214.31;;;21.29;82.21
45813;BME280;31519;45.408;10.962;2023-10-13T01:16:51;101214.06;;;21.38;81.91
45813;BME280;31519;45.408;10.962;2023-10-13T01:19:20;101211.44;;;21.87;80.13
45813;BME280;31519;45.408;10.962;2023-10-13T01:21:58;101216.25;;;22.20;78.23
45813;BME280;31519;45.408;10.962;2023-10-13T01:24:31;101211.28;;;22.51;76.35
45813;BME280;31519;45.408;10.962;2023-10-13T01:27:04;101218.66;;;22.51;76.16
45813;BME280;31519;45.408;10.962;2023-10-13T01:29:53;101212.56;;;22.31;77.38
45813;BME280;31519;45.408;10.962;2023-10-13T01:32:33;101207.44;;;22.26;77.65
45813;BME280;31519;45.408;10.962;2023-10-13T01:35:02;101215.69;;;22.33;77.01
45813;BME280;31519;45.408;10.962;2023-10-13T01:37:34;101213.59;;;22.49;76.99
45813;BME280;31519;45.408;10.962;2023-10-13T01:40:02;101203.66;;;22.61;76.18
45813;BME280;31519;45.408;10.962;2023-10-13T01:42:32;101199.88;;;22.69;75.69
45813;BME280;31519;45.408;10.962;2023-10-13T01:45:05;101206.38;;;22.61;76.11
45813;BME280;31519;45.408;10.962;2023-10-13T01:47:34;101194.03;;;22.67;75.94
45813;BME280;31519;45.408;10.962;2023-10-13T01:50:02;101195.53;;;22.64;75.66
45813;BME280;31519;45.408;10.962;2023-10-13T01:52:49;101194.41;;;22.95;74.64
45813;BME280;31519;45.408;10.962;2023-10-13T01:55:17;101195.06;;;22.85;74.89
45813;BME280;31519;45.408;10.962;2023-10-13T01:57:48;101195.47;;;22.87;74.87
45813;BME280;31519;45.408;10.962;2023-10-13T02:00:16;101201.75;;;22.91;74.71
45813;BME280;31519;45.408;10.962;2023-10-13T02:02:48;101201.47;;;23.00;74.47
45813;BME280;31519;45.408;10.962;2023-10-13T02:05:19;101195.09;;;22.88;74.52
45813;BME280;31519;45.408;10.962;2023-10-13T02:07:47;101195.16;;;22.92;74.54
45813;BME280;31519;45.408;10.962;2023-10-13T02:10:15;101192.69;;;22.80;74.80
45813;BME280;31519;45.408;10.962;2023-10-13T02:12:44;101193.53;;;22.87;74.42
45813;BME280;31519;45.408;10.962;2023-10-13T02:15:13;101191.28;;;22.93;74.46
45813;BME280;31519;45.408;10.962;2023-10-13T02:17:54;101184.22;;;22.85;74.38
45813;BME280;31519;45.408;10.962;2023-10-13T02:20:23;101193.81;;;22.79;75.56
45813;BME280;31519;45.408;10.962;2023-10-13T02:22:53;101190.38;;;22.82;75.35
45813;BME280;31519;45.408;10.962;2023-10-13T02:25:21;101181.56;;;22.92;74.69
45813;BME280;31519;45.408;10.962;2023-10-13T02:28:09;101181.31;;;22.71;75.62
45813;BME280;31519;45.408;10.962;2023-10-13T02:30:50;101183.72;;;22.76;75.67
45813;BME280;31519;45.408;10.962;2023-10-13T02:33:18;101175.53;;;22.72;76.14
45813;BME280;31519;45.408;10.962;2023-10-13T02:35:49;101171.31;;;22.48;77.08
45813;BME280;31519;45.408;10.962;2023-10-13T02:38:25;101167.00;;;22.47;77.06
45813;BME280;31519;45.408;10.962;2023-10-13T02:41:16;101161.63;;;22.51;77.21
45813;BME280;31519;45.408;10.962;2023-10-13T02:43:56;101163.19;;;22.52;77.48
45813;BME280;31519;45.408;10.962;2023-10-13T02:46:24;101165.72;;;22.38;77.54
45813;BME280;31519;45.408;10.962;2023-10-13T02:48:57;101164.06;;;22.60;76.77
45813;BME280;31519;45.408;10.962;2023-10-13T02:51:29;101157.53;;;22.34;77.86
45813;BME280;31519;45.408;10.962;2023-10-13T02:54:04;101159.88;;;22.66;76.98
45813;BME280;31519;45.408;10.962;2023-10-13T02:56:46;101155.66;;;22.38;77.71
45813;BME280;31519;45.408;10.962;2023-10-13T02:59:28;101154.06;;;22.37;78.14
45813;BME280;31519;45.408;10.962;2023-10-13T03:02:03;101158.59;;;22.56;77.10
45813;BME280;31519;45.408;10.962;2023-10-13T03:04:57;101153.66;;;22.65;76.29
45813;BME280;31519;45.408;10.962;2023-10-13T03:07:37;101151.91;;;22.20;78.48
45813;BME280;31519;45.408;10.962;2023-10-13T03:10:06;101150.72;;;22.47;77.84
45813;BME280;31519;45.408;10.962;2023-10-13T03:12:39;101154.03;;;22.34;78.52
45813;BME280;31519;45.408;10.962;2023-10-13T03:15:08;101155.19;;;22.33;78.47
45813;BME280;31519;45.408;10.962;2023-10-13T03:17:42;101156.97;;;22.51;77.57
45813;BME280;31519;45.408;10.962;2023-10-13T03:20:16;101151.31;;;22.34;78.32
45813;BME280;31519;45.408;10.962;2023-10-13T03:22:54;101151.75;;;22.36;78.05
45813;BME280;31519;45.408;10.962;2023-10-13T03:25:22;101160.69;;;22.36;78.24
45813;BME280;31519;45.408;10.962;2023-10-13T03:27:56;101170.44;;;22.15;79.34
45813;BME280;31519;45.408;10.962;2023-10-13T03:30:28;101164.03;;;22.26;79.19
45813;BME280;31519;45.408;10.962;2023-10-13T03:33:07;101166.22;;;22.17;79.39
45813;BME280;31519;45.408;10.962;2023-10-13T03:35:40;101159.22;;;22.16;79.37
45813;BME280;31519;45.408;10.962;2023-10-13T03:38:10;101161.78;;;22.05;80.52
45813;BME280;31519;45.408;10.962;2023-10-13T03:40:47;101159.22;;;22.16;79.75
45813;BME280;31519;45.408;10.962;2023-10-13T03:43:45;101158.31;;;22.35;79.36
45813;BME280;31519;45.408;10.962;2023-10-13T03:46:15;101165.84;;;22.19;79.76
45813;BME280;31519;45.408;10.962;2023-10-13T03:48:49;101169.84;;;22.28;79.40
45813;BME280;31519;45.408;10.962;2023-10-13T03:51:23;101167.53;;;22.27;79.69
45813;BME280;31519;45.408;10.962;2023-10-13T03:53:59;101172.22;;;22.30;79.51
45813;BME280;31519;45.408;10.962;2023-10-13T03:56:28;101175.38;;;22.09;80.16
45813;BME280;31519;45.408;10.962;2023-10-13T03:59:08;101167.72;;;22.15;80.09
45813;BME280;31519;45.408;10.962;2023-10-13T04:01:59;101165.59;;;22.27;79.50
45813;BME280;31519;45.408;10.962;2023-10-13T04:04:30;101152.94;;;22.38;79.12
45813;BME280;31519;45.408;10.962;2023-10-13T04:07:17;101159.00;;;22.28;79.48
45813;BME280;31519;45.408;10.962;2023-10-13T04:09:54;101164.53;;;22.35;79.62
45813;BME280;31519;45.408;10.962;2023-10-13T04:12:47;101165.00;;;22.41;79.21
45813;BME280;31519;45.408;10.962;2023-10-13T04:15:33;101171.31;;;22.48;78.70
45813;BME280;31519;45.408;10.962;2023-10-13T04:18:08;101167.22;;;22.32;79.44
45813;BME280;31519;45.408;10.962;2023-10-13T04:20:56;101171.56;;;22.14;80.08
45813;BME280;31519;45.408;10.962;2023-10-13T04:23:36;101172.34;;;22.14;80.30
45813;BME280;31519;45.408;10.962;2023-10-13T04:26:24;101162.91;;;22.31;79.36
45813;BME280;31519;45.408;10.962;2023-10-13T04:29:04;101164.53;;;22.35;79.30
45813;BME280;31519;45.408;10.962;2023-10-13T04:31:38;101174.41;;;22.21;80.08
45813;BME280;31519;45.408;10.962;2023-10-13T04:34:25;101171.38;;;22.26;79.65
45813;BME280;31519;45.408;10.962;2023-10-13T04:37:02;101168.19;;;21.94;80.82
45813;BME280;31519;45.408;10.962;2023-10-13T04:39:56;101173.16;;;22.15;79.87
45813;BME280;31519;45.408;10.962;2023-10-13T04:42:38;101183.03;;;22.26;79.55
45813;BME280;31519;45.408;10.962;2023-10-13T04:45:19;101172.53;;;22.25;79.27
45813;BME280;31519;45.408;10.962;2023-10-13T04:48:00;101176.25;;;22.13;79.93
45813;BME280;31519;45.408;10.962;2023-10-13T04:50:49;101168.31;;;22.27;79.54
45813;BME280;31519;45.408;10.962;2023-10-13T04:53:40;101172.28;;;22.37;79.13
45813;BME280;31519;45.408;10.962;2023-10-13T04:56:27;101177.72;;;22.37;79.02
45813;BME280;31519;45.408;10.962;2023-10-13T04:59:13;101176.06;;;22.29;79.09
45813;BME280;31519;45.408;10.962;2023-10-13T05:02:01;101179.78;;;22.17;79.36
45813;BME280;31519;45.408;10.962;2023-10-13T05:04:49;101169.44;;;22.26;79.34
45813;BME280;31519;45.408;10.962;2023-10-13T05:07:40;101176.84;;;22.29;79.10
45813;BME280;31519;45.408;10.962;2023-10-13T05:10:27;101178.69;;;22.22;79.55
45813;BME280;31519;45.408;10.962;2023-10-13T05:13:15;101177.44;;;22.16;79.74
45813;BME280;31519;45.408;10.962;2023-10-13T05:16:01;101181.66;;;22.13;79.72
45813;BME280;31519;45.408;10.962;2023-10-13T05:18:48;101181.81;;;22.24;79.04
45813;BME280;31519;45.408;10.962;2023-10-13T05:21:35;101188.50;;;22.30;78.85
45813;BME280;31519;45.408;10.962;2023-10-13T05:24:24;101195.91;;;22.06;79.60
45813;BME280;31519;45.408;10.962;2023-10-13T05:27:11;101193.06;;;21.77;81.74
45813;BME280;31519;45.408;10.962;2023-10-13T05:29:58;101186.41;;;21.93;80.97
45813;BME280;31519;45.408;10.962;2023-10-13T05:32:45;101197.22;;;22.16;79.59
45813;BME280;31519;45.408;10.962;2023-10-13T05:35:32;101201.41;;;22.14;79.52
45813;BME280;31519;45.408;10.962;2023-10-13T05:38:19;101205.59;;;22.07;79.78
45813;BME280;31519;45.408;10.962;2023-10-13T05:41:06;101202.94;;;22.11;78.91
45813;BME280;31519;45.408;10.962;2023-10-13T05:43:53;101210.22;;;22.30;78.92
45813;BME280;31519;45.408;10.962;2023-10-13T05:46:40;101221.00;;;22.52;77.51
45813;BME280;31519;45.408;10.962;2023-10-13T05:49:17;101225.09;;;22.39;77.98
45813;BME280;31519;45.408;10.962;2023-10-13T05:51:46;101219.53;;;22.32;78.18
45813;BME280;31519;45.408;10.962;2023-10-13T05:54:20;101227.84;;;22.17;79.01
45813;BME280;31519;45.408;10.962;2023-10-13T05:56:50;101230.59;;;22.20;79.16
45813;BME280;31519;45.408;10.962;2023-10-13T05:59:37;101230.88;;;22.12;78.87
45813;BME280;31519;45.408;10.962;2023-10-13T06:02:24;101229.25;;;22.07;79.62
45813;BME280;31519;45.408;10.962;2023-10-13T06:05:12;101232.16;;;21.95;80.76
45813;BME280;31519;45.408;10.962;2023-10-13T06:07:59;101233.22;;;22.13;79.68
45813;BME280;31519;45.408;10.962;2023-10-13T06:10:47;101237.19;;;22.19;79.53
45813;BME280;31519;45.408;10.962;2023-10-13T06:13:35;101246.78;;;21.67;82.58
45813;BME280;31519;45.408;10.962;2023-10-13T06:16:22;101246.16;;;21.78;82.75
45813;BME280;31519;45.408;10.962;2023-10-13T06:19:09;101250.22;;;22.10;81.64
45813;BME280;31519;45.408;10.962;2023-10-13T06:21:56;101251.91;;;22.44;79.43
45813;BME280;31519;45.408;10.962;2023-10-13T06:24:44;101259.88;;;22.60;78.81
45813;BME280;31519;45.408;10.962;2023-10-13T06:27:35;101260.78;;;22.41;79.98
45813;BME280;31519;45.408;10.962;2023-10-13T06:30:22;101260.91;;;22.48;79.34
45813;BME280;31519;45.408;10.962;2023-10-13T06:32:50;101262.47;;;22.49;79.38
45813;BME280;31519;45.408;10.962;2023-10-13T06:35:19;101266.38;;;22.26;80.59
45813;BME280;31519;45.408;10.962;2023-10-13T06:37:51;101269.13;;;21.84;82.93
45813;BME280;31519;45.408;10.962;2023-10-13T06:40:20;101268.53;;;21.71;84.04
45813;BME280;31519;45.408;10.962;2023-10-13T06:42:54;101275.28;;;21.39;85.76
45813;BME280;31519;45.408;10.962;2023-10-13T06:45:55;101277.03;;;21.50;85.34
45813;BME280;31519;45.408;10.962;2023-10-13T06:48:29;101289.50;;;21.36;86.90
45813;BME280;31519;45.408;10.962;2023-10-13T06:51:02;101281.38;;;21.55;86.36
45813;BME280;31519;45.408;10.962;2023-10-13T06:53:46;101293.44;;;21.77;85.92
45813;BME280;31519;45.408;10.962;2023-10-13T06:56:16;101292.13;;;21.71;85.41
45813;BME280;31519;45.408;10.962;2023-10-13T06:58:56;101297.16;;;21.49;86.30
45813;BME280;31519;45.408;10.962;2023-10-13T07:01:34;101294.81;;;21.90;84.83
45813;BME280;31519;45.408;10.962;2023-10-13T07:04:09;101305.63;;;22.09;83.53
45813;BME280;31519;45.408;10.962;2023-10-13T07:06:44;101298.66;;;21.89;84.43
45813;BME280;31519;45.408;10.962;2023-10-13T07:09:19;101305.50;;;22.02;84.11
45813;BME280;31519;45.408;10.962;2023-10-13T07:12:17;101300.16;;;21.86;85.08
45813;BME280;31519;45.408;10.962;2023-10-13T07:14:50;101307.88;;;22.03;84.62
45813;BME280;31519;45.408;10.962;2023-10-13T07:17:23;101303.81;;;22.17;84.42
45813;BME280;31519;45.408;10.962;2023-10-13T07:19:55;101308.28;;;22.05;84.89
45813;BME280;31519;45.408;10.962;2023-10-13T07:22:43;101313.66;;;22.25;83.55
45813;BME280;31519;45.408;10.962;2023-10-13T07:25:30;101307.34;;;22.17;83.27
45813;BME280;31519;45.408;10.962;2023-10-13T07:28:04;101303.66;;;21.87;85.49
45813;BME280;31519;45.408;10.962;2023-10-13T07:30:35;101306.91;;;21.73;86.30
45813;BME280;31519;45.408;10.962;2023-10-13T07:33:21;101311.78;;;22.06;84.81
45813;BME280;31519;45.408;10.962;2023-10-13T07:36:07;101315.59;;;22.50;83.23
45813;BME280;31519;45.408;10.962;2023-10-13T07:38:47;101309.97;;;22.85;81.30
45813;BME280;31519;45.408;10.962;2023-10-13T07:41:32;101321.88;;;22.77;80.93
45813;BME280;31519;45.408;10.962;2023-10-13T07:44:01;101315.78;;;22.87;80.74
45813;BME280;31519;45.408;10.962;2023-10-13T07:46:31;101311.25;;;22.95;79.18
45813;BME280;31519;45.408;10.962;2023-10-13T07:49:04;101319.22;;;22.81;79.81
45813;BME280;31519;45.408;10.962;2023-10-13T07:51:39;101322.38;;;22.15;82.91
45813;BME280;31519;45.408;10.962;2023-10-13T07:54:13;101325.00;;;22.57;80.45
45813;BME280;31519;45.408;10.962;2023-10-13T07:56:49;101320.16;;;22.69;80.71
45813;BME280;31519;45.408;10.962;2023-10-13T07:59:18;101325.44;;;22.59;81.29
45813;BME280;31519;45.408;10.962;2023-10-13T08:01:51;101325.81;;;22.83;80.92
45813;BME280;31519;45.408;10.962;2023-10-13T08:04:41;101327.56;;;22.46;82.00
45813;BME280;31519;45.408;10.962;2023-10-13T08:07:09;101332.69;;;22.28;83.84
45813;BME280;31519;45.408;10.962;2023-10-13T08:09:42;101332.69;;;22.51;83.33
45813;BME280;31519;45.408;10.962;2023-10-13T08:12:19;101331.59;;;22.33;84.16
45813;BME280;31519;45.408;10.962;2023-10-13T08:14:49;101322.19;;;22.49;82.38
45813;BME280;31519;45.408;10.962;2023-10-13T08:17:36;101330.63;;;22.67;81.30
45813;BME280;31519;45.408;10.962;2023-10-13T08:20:05;101332.81;;;22.58;81.36
45813;BME280;31519;45.408;10.962;2023-10-13T08:22:40;101331.06;;;22.95;79.87
45813;BME280;31519;45.408;10.962;2023-10-13T08:25:15;101328.13;;;23.71;77.54
45813;BME280;31519;45.408;10.962;2023-10-13T08:27:48;101328.03;;;24.01;74.86
45813;BME280;31519;45.408;10.962;2023-10-13T08:30:18;101325.81;;;24.13;74.48
45813;BME280;31519;45.408;10.962;2023-10-13T08:32:57;101332.31;;;24.02;73.26
45813;BME280;31519;45.408;10.962;2023-10-13T08:35:28;101331.06;;;23.92;73.58
45813;BME280;31519;45.408;10.962;2023-10-13T08:38:03;101327.34;;;24.11;71.43
45813;BME280;31519;45.408;10.962;2023-10-13T08:40:59;101332.16;;;24.24;71.73
45813;BME280;31519;45.408;10.962;2023-10-13T08:43:32;101329.16;;;24.37;71.58
45813;BME280;31519;45.408;10.962;2023-10-13T08:46:12;101337.13;;;24.63;70.20
45813;BME280;31519;45.408;10.962;2023-10-13T08:48:59;101336.88;;;24.31;71.56
45813;BME280;31519;45.408;10.962;2023-10-13T08:51:44;101340.22;;;24.61;70.15
45813;BME280;31519;45.408;10.962;2023-10-13T08:54:14;101337.38;;;24.03;72.17
45813;BME280;31519;45.408;10.962;2023-10-13T08:57:03;101332.13;;;23.84;73.52
45813;BME280;31519;45.408;10.962;2023-10-13T08:59:48;101338.56;;;24.46;71.59
45813;BME280;31519;45.408;10.962;2023-10-13T09:02:23;101337.88;;;24.56;70.39
45813;BME280;31519;45.408;10.962;2023-10-13T09:05:11;101347.97;;;24.56;69.90
45813;BME280;31519;45.408;10.962;2023-10-13T09:07:58;101350.41;;;24.68;70.09
45813;BME280;31519;45.408;10.962;2023-10-13T09:10:37;101344.47;;;25.13;68.64
45813;BME280;31519;45.408;10.962;2023-10-13T09:13:35;101346.47;;;25.27;67.77
45813;BME280;31519;45.408;10.962;2023-10-13T09:16:13;101351.22;;;25.41;67.22
45813;BME280;31519;45.408;10.962;2023-10-13T09:19:05;101349.25;;;25.41;66.80
45813;BME280;31519;45.408;10.962;2023-10-13T09:21:39;101350.81;;;24.73;68.28
45813;BME280;31519;45.408;10.962;2023-10-13T09:24:09;101345.41;;;24.81;68.16
45813;BME280;31519;45.408;10.962;2023-10-13T09:26:51;101354.50;;;24.99;66.96
45813;BME280;31519;45.408;10.962;2023-10-13T09:29:23;101346.84;;;25.26;66.21
45813;BME280;31519;45.408;10.962;2023-10-13T09:32:03;101336.88;;;25.58;65.65
45813;BME280;31519;45.408;10.962;2023-10-13T09:34:32;101344.31;;;25.65;64.98
45813;BME280;31519;45.408;10.962;2023-10-13T09:37:09;101344.97;;;25.40;64.98
45813;BME280;31519;45.408;10.962;2023-10-13T09:39:41;101336.78;;;25.44;64.29
45813;BME280;31519;45.408;10.962;2023-10-13T09:42:20;101341.50;;;25.47;64.78
45813;BME280;31519;45.408;10.962;2023-10-13T09:44:52;101336.13;;;25.72;64.20
45813;BME280;31519;45.408;10.962;2023-10-13T09:47:23;101334.63;;;26.06;62.81
45813;BME280;31519;45.408;10.962;2023-10-13T09:50:00;101328.03;;;26.25;61.94
45813;BME280;31519;45.408;10.962;2023-10-13T09:52:34;101331.91;;;26.63;61.14
45813;BME280;31519;45.408;10.962;2023-10-13T09:55:31;101327.97;;;26.92;60.06
45813;BME280;31519;45.408;10.962;2023-10-13T09:58:06;101329.94;;;26.81;59.78
45813;BME280;31519;45.408;10.962;2023-10-13T10:00:43;101328.31;;;27.05;59.58
45813;BME280;31519;45.408;10.962;2023-10-13T10:03:26;101325.00;;;27.56;58.73
45813;BME280;31519;45.408;10.962;2023-10-13T10:06:00;101335.06;;;27.76;57.56
45813;BME280;31519;45.408;10.962;2023-10-13T10:08:51;101323.88;;;28.12;56.77
45813;BME280;31519;45.408;10.962;2023-10-13T10:12:00;101324.44;;;27.86;56.61
45813;BME280;31519;45.408;10.962;2023-10-13T10:17:13;101314.19;;;27.24;58.62
45813;BME280;31519;45.408;10.962;2023-10-13T10:19:48;101315.13;;;26.61;60.55
45813;BME280;31519;45.408;10.962;2023-10-13T10:22:33;101313.91;;;26.97;59.16
45813;BME280;31519;45.408;10.962;2023-10-13T10:25:05;101314.19;;;27.24;58.64
45813;BME280;31519;45.408;10.962;2023-10-13T10:27:56;101313.94;;;27.77;57.13
45813;BME280;31519;45.408;10.962;2023-10-13T10:30:26;101308.97;;;28.16;56.42
45813;BME280;31519;45.408;10.962;2023-10-13T10:32:58;101303.03;;;28.25;55.31
45813;BME280;31519;45.408;10.962;2023-10-13T10:35:57;101307.81;;;28.58;54.28
45813;BME280;31519;45.408;10.962;2023-10-13T10:38:27;101301.25;;;27.28;55.53
45813;BME280;31519;45.408;10.962;2023-10-13T10:41:03;101303.31;;;28.34;52.30
45813;BME280;31519;45.408;10.962;2023-10-13T10:46:17;101294.81;;;27.70;54.11
45813;BME280;31519;45.408;10.962;2023-10-13T10:48:46;101298.25;;;27.01;54.98
45813;BME280;31519;45.408;10.962;2023-10-13T10:51:15;101298.91;;;27.30;54.66
45813;BME280;31519;45.408;10.962;2023-10-13T10:53:54;101287.66;;;27.14;54.70
45813;BME280;31519;45.408;10.962;2023-10-13T10:56:25;101289.03;;;27.57;53.33
45813;BME280;31519;45.408;10.962;2023-10-13T10:59:06;101284.25;;;26.74;55.30
45813;BME280;31519;45.408;10.962;2023-10-13T11:01:43;101280.78;;;26.56;56.26
45813;BME280;31519;45.408;10.962;2023-10-13T11:04:16;101272.44;;;27.09;55.00
45813;BME280;31519;45.408;10.962;2023-10-13T11:09:26;101268.72;;;27.51;53.37
45813;BME280;31519;45.408;10.962;2023-10-13T11:11:54;101265.66;;;27.39;54.18
45813;BME280;31519;45.408;10.962;2023-10-13T11:14:26;101264.28;;;27.02;54.56
45813;BME280;31519;45.408;10.962;2023-10-13T11:16:56;101259.59;;;26.99;55.22
45813;BME280;31519;45.408;10.962;2023-10-13T11:19:39;101252.84;;;27.25;54.84
45813;BME280;31519;45.408;10.962;2023-10-13T11:22:19;101247.44;;;27.11;54.78
45813;BME280;31519;45.408;10.962;2023-10-13T11:25:06;101247.81;;;27.13;54.91
45813;BME280;31519;45.408;10.962;2023-10-13T11:27:39;101253.03;;;26.65;56.00
45813;BME280;31519;45.408;10.962;2023-10-13T11:30:27;101236.22;;;26.80;55.35
45813;BME280;31519;45.408;10.962;2023-10-13T11:33:11;101240.13;;;26.72;55.28
45813;BME280;31519;45.408;10.962;2023-10-13T11:35:39;101231.94;;;26.69;56.15
45813;BME280;31519;45.408;10.962;2023-10-13T11:41:04;101230.47;;;26.15;55.26
45813;BME280;31519;45.408;10.962;2023-10-13T11:43:35;101225.03;;;26.11;54.92
45813;BME280;31519;45.408;10.962;2023-10-13T11:46:25;101229.69;;;26.03;54.80
45813;BME280;31519;45.408;10.962;2023-10-13T11:49:10;101215.66;;;26.23;54.21
45813;BME280;31519;45.408;10.962;2023-10-13T11:51:49;101219.91;;;26.45;53.72
45813;BME280;31519;45.408;10.962;2023-10-13T11:54:18;101218.31;;;26.55;53.96
45813;BME280;31519;45.408;10.962;2023-10-13T11:56:48;101214.47;;;26.49;52.27
45813;BME280;31519;45.408;10.962;2023-10-13T11:59:17;101211.72;;;26.45;51.52
45813;BME280;31519;45.408;10.962;2023-10-13T12:01:49;101205.84;;;26.50;50.42
45813;BME280;31519;45.408;10.962;2023-10-13T12:04:38;101205.06;;;26.57;51.24
45813;BME280;31519;45.408;10.962;2023-10-13T12:07:26;101197.31;;;26.16;51.68
45813;BME280;31519;45.408;10.962;2023-10-13T12:10:13;101193.78;;;26.37;52.01
45813;BME280;31519;45.408;10.962;2023-10-13T12:13:05;101195.69;;;26.51;51.12
45813;BME280;31519;45.408;10.962;2023-10-13T12:15:37;101188.22;;;26.65;50.84
45813;BME280;31519;45.408;10.962;2023-10-13T12:18:17;101192.13;;;26.71;50.54
45813;BME280;31519;45.408;10.962;2023-10-13T12:20:47;101186.78;;;26.29;50.92
45813;BME280;31519;45.408;10.962;2023-10-13T12:23:17;101183.69;;;25.98;51.47
45813;BME280;31519;45.408;10.962;2023-10-13T12:25:48;101178.16;;;26.44;51.20
45813;BME280;31519;45.408;10.962;2023-10-13T12:28:24;101175.50;;;25.98;52.51
45813;BME280;31519;45.408;10.962;2023-10-13T12:30:55;101177.03;;;26.35;51.72
45813;BME280;31519;45.408;10.962;2023-10-13T12:33:26;101172.75;;;26.20;50.41
45813;BME280;31519;45.408;10.962;2023-10-13T12:36:08;101169.13;;;26.58;49.93
45813;BME280;31519;45.408;10.962;2023-10-13T12:38:38;101161.38;;;26.46;50.68
45813;BME280;31519;45.408;10.962;2023-10-13T12:41:20;101166.88;;;26.28;51.05
45813;BME280;31519;45.408;10.962;2023-10-13T12:44:07;101164.56;;;26.16;50.85
45813;BME280;31519;45.408;10.962;2023-10-13T12:46:54;101156.72;;;26.32;50.50
45813;BME280;31519;45.408;10.962;2023-10-13T12:49:41;101157.84;;;26.49;48.70
45813;BME280;31519;45.408;10.962;2023-10-13T12:52:11;101150.59;;;27.01;47.57
45813;BME280;31519;45.408;10.962;2023-10-13T12:55:08;101151.75;;;27.04;47.60
45813;BME280;31519;45.408;10.962;2023-10-13T12:57:38;101142.81;;;26.96;47.68
45813;BME280;31519;45.408;10.962;2023-10-13T13:00:12;101144.44;;;27.49;45.34
45813;BME280;31519;45.408;10.962;2023-10-13T13:02:51;101141.50;;;27.70;44.22
45813;BME280;31519;45.408;10.962;2023-10-13T13:05:21;101135.81;;;27.50;45.45
45813;BME280;31519;45.408;10.962;2023-10-13T13:07:55;101144.13;;;27.32;42.40
45813;BME280;31519;45.408;10.962;2023-10-13T13:10:23;101138.94;;;27.52;42.19
45813;BME280;31519;45.408;10.962;2023-10-13T13:13:04;101133.00;;;27.02;44.17
45813;BME280;31519;45.408;10.962;2023-10-13T13:15:33;101135.59;;;27.23;44.49
45813;BME280;31519;45.408;10.962;2023-10-13T13:18:02;101139.69;;;27.56;44.03
45813;BME280;31519;45.408;10.962;2023-10-13T13:20:39;101130.81;;;27.83;43.12
45813;BME280;31519;45.408;10.962;2023-10-13T13:23:07;101127.47;;;28.05;42.78
45813;BME280;31519;45.408;10.962;2023-10-13T13:25:35;101117.53;;;28.83;41.99
45813;BME280;31519;45.408;10.962;2023-10-13T13:28:10;101109.91;;;29.47;40.72
45813;BME280;31519;45.408;10.962;2023-10-13T13:30:41;101110.56;;;29.55;40.92
45813;BME280;31519;45.408;10.962;2023-10-13T13:33:09;101113.41;;;29.94;40.06
45813;BME280;31519;45.408;10.962;2023-10-13T13:35:40;101119.03;;;29.87;40.06
45813;BME280;31519;45.408;10.962;2023-10-13T13:38:11;101106.75;;;29.49;40.59
45813;BME280;31519;45.408;10.962;2023-10-13T13:40:50;101102.53;;;29.18;41.52
45813;BME280;31519;45.408;10.962;2023-10-13T13:43:22;101116.66;;;28.29;42.54
45813;BME280;31519;45.408;10.962;2023-10-13T13:46:07;101105.03;;;28.51;41.95